createdAt,value
2018-11-22T00:00:49.144Z,52.70
2018-11-22T00:01:49.095Z,52.90
2018-11-22T00:02:49.047Z,53.60
2018-11-22T00:03:49.016Z,50.30
2018-11-22T00:04:48.975Z,51.50
2018-11-22T00:05:48.940Z,51.10
2018-11-22T00:06:48.908Z,53.40
2018-11-22T00:07:48.861Z,52.40
2018-11-22T00:08:48.826Z,53.70
2018-11-22T00:09:48.781Z,50.30
2018-11-22T00:10:48.745Z,48.90
2018-11-22T00:11:48.712Z,50.90
2018-11-22T00:12:48.668Z,50.80
2018-11-22T00:13:48.629Z,51.40
2018-11-22T00:14:48.579Z,51.20
2018-11-22T00:15:48.549Z,49.40
2018-11-22T00:16:48.496Z,50.60
2018-11-22T00:17:48.472Z,47.80
2018-11-22T00:18:48.422Z,49.10
2018-11-22T00:19:48.393Z,49.90
2018-11-22T00:20:48.378Z,50.30
2018-11-22T00:21:48.361Z,50.80
2018-11-22T00:22:48.264Z,51.20
2018-11-22T00:23:48.215Z,51.40
2018-11-22T00:24:48.183Z,50.70
2018-11-22T00:25:48.159Z,51.20
2018-11-22T00:26:48.114Z,50.80
2018-11-22T00:27:48.070Z,50.70
2018-11-22T00:28:48.024Z,49.70
2018-11-22T00:29:47.988Z,49.90
2018-11-22T00:30:47.967Z,52.10
2018-11-22T00:31:47.903Z,50.00
2018-11-22T00:32:47.886Z,49.10
2018-11-22T00:33:47.834Z,48.80
2018-11-22T00:34:47.783Z,50.40
2018-11-22T00:35:47.753Z,48.50
2018-11-22T00:36:47.716Z,50.20
2018-11-22T00:37:47.668Z,50.90
2018-11-22T00:38:47.630Z,50.60
2018-11-22T00:39:47.590Z,50.00
2018-11-22T00:40:47.566Z,48.60
2018-11-22T00:41:47.507Z,51.40
2018-11-22T00:42:47.467Z,51.90
2018-11-22T00:43:47.463Z,51.90
2018-11-22T00:45:54.400Z,49.20
2018-11-22T00:46:47.306Z,49.90
2018-11-22T00:47:47.268Z,50.00
2018-11-22T00:48:47.222Z,51.90
2018-11-22T00:49:47.184Z,49.80
2018-11-22T00:50:47.140Z,51.30
2018-11-22T00:51:47.116Z,49.60
2018-11-22T00:52:47.067Z,50.00
2018-11-22T00:53:47.024Z,50.60
2018-11-22T00:54:46.986Z,49.50
2018-11-22T00:55:46.946Z,48.40
2018-11-22T00:56:46.927Z,51.30
2018-11-22T00:57:46.871Z,49.60
2018-11-22T00:58:46.827Z,49.00
2018-11-22T00:59:46.791Z,49.10
2018-11-22T01:00:46.746Z,49.10
2018-11-22T01:01:46.716Z,48.40
2018-11-22T01:02:46.665Z,51.80
2018-11-22T01:03:46.625Z,47.20
2018-11-22T01:04:46.590Z,48.30
2018-11-22T01:05:46.547Z,50.80
2018-11-22T01:06:46.517Z,49.10
2018-11-22T01:07:46.467Z,51.10
2018-11-22T01:08:46.427Z,48.20
2018-11-22T01:09:46.388Z,50.30
2018-11-22T01:10:46.350Z,49.00
2018-11-22T01:11:46.317Z,50.50
2018-11-22T01:12:46.271Z,49.50
2018-11-22T01:13:46.232Z,49.70
2018-11-22T01:14:46.189Z,50.30
2018-11-22T01:15:46.149Z,49.00
2018-11-22T01:16:46.120Z,49.30
2018-11-22T01:17:46.069Z,49.20
2018-11-22T01:18:46.035Z,49.60
2018-11-22T01:19:45.990Z,49.60
2018-11-22T01:20:45.950Z,48.80
2018-11-22T01:21:45.920Z,47.50
2018-11-22T01:22:45.875Z,49.30
2018-11-22T01:23:45.828Z,48.80
2018-11-22T01:24:45.791Z,48.90
2018-11-22T01:25:45.758Z,48.60
2018-11-22T01:26:45.724Z,50.00
2018-11-22T01:27:45.670Z,50.10
2018-11-22T01:28:45.634Z,49.50
2018-11-22T01:29:45.592Z,48.80
2018-11-22T01:30:45.558Z,47.70
2018-11-22T01:31:45.512Z,51.00
2018-11-22T01:32:52.527Z,48.50
2018-11-22T01:33:45.436Z,49.90
2018-11-22T01:34:45.401Z,48.80
2018-11-22T01:35:45.353Z,49.10
2018-11-22T01:36:45.314Z,47.90
2018-11-22T01:37:45.285Z,49.40
2018-11-22T01:38:45.249Z,49.50
2018-11-22T01:39:45.194Z,49.40
2018-11-22T01:40:45.153Z,48.50
2018-11-22T01:41:45.112Z,49.80
2018-11-22T01:42:45.114Z,48.60
2018-11-22T01:43:45.031Z,48.80
2018-11-22T01:44:44.993Z,50.60
2018-11-22T01:45:44.952Z,49.10
2018-11-22T01:46:44.910Z,48.50
2018-11-22T01:47:44.882Z,48.50
2018-11-22T01:48:44.834Z,49.60
2018-11-22T01:49:44.793Z,47.30
2018-11-22T01:50:44.751Z,47.10
2018-11-22T01:51:44.710Z,47.50
2018-11-22T01:52:44.693Z,48.50
2018-11-22T01:53:44.632Z,47.90
2018-11-22T01:54:44.592Z,47.30
2018-11-22T01:55:44.553Z,47.60
2018-11-22T01:56:44.511Z,48.80
2018-11-22T01:57:44.482Z,46.60
2018-11-22T01:58:44.436Z,46.70
2018-11-22T01:59:44.393Z,48.60
2018-11-22T02:00:44.351Z,48.90
2018-11-22T02:01:44.330Z,45.90
2018-11-22T02:02:44.272Z,48.30
2018-11-22T02:03:44.231Z,45.20
2018-11-22T02:04:44.192Z,49.80
2018-11-22T02:05:44.151Z,48.10
2018-11-22T02:06:44.112Z,48.30
2018-11-22T02:07:44.081Z,49.10
2018-11-22T02:08:44.035Z,48.40
2018-11-22T02:09:43.991Z,49.00
2018-11-22T02:10:43.949Z,47.00
2018-11-22T02:11:43.911Z,46.30
2018-11-22T02:12:43.882Z,48.70
2018-11-22T02:13:43.833Z,47.10
2018-11-22T02:14:43.790Z,46.50
2018-11-22T02:15:43.752Z,47.60
2018-11-22T02:16:43.715Z,45.80
2018-11-22T02:17:43.684Z,46.20
2018-11-22T02:18:43.632Z,46.50
2018-11-22T02:19:43.593Z,48.50
2018-11-22T02:20:43.554Z,45.70
2018-11-22T02:21:43.510Z,47.70
2018-11-22T02:22:43.493Z,47.20
2018-11-22T02:23:43.429Z,45.40
2018-11-22T02:24:43.393Z,46.70
2018-11-22T02:25:43.351Z,47.30
2018-11-22T02:26:43.317Z,46.50
2018-11-22T02:27:43.273Z,44.70
2018-11-22T02:28:43.243Z,45.40
2018-11-22T02:29:43.194Z,46.70
2018-11-22T02:30:43.151Z,46.80
2018-11-22T02:31:43.114Z,46.20
2018-11-22T02:32:43.075Z,47.20
2018-11-22T02:33:43.054Z,47.20
2018-11-22T02:34:42.993Z,47.10
2018-11-22T02:35:42.953Z,46.60
2018-11-22T02:36:42.916Z,46.50
2018-11-22T02:37:42.872Z,43.50
2018-11-22T02:38:42.835Z,46.20
2018-11-22T02:39:42.805Z,44.10
2018-11-22T02:40:42.754Z,45.00
2018-11-22T02:41:42.715Z,46.30
2018-11-22T02:42:42.675Z,46.00
2018-11-22T02:43:42.632Z,45.10
2018-11-22T02:44:42.605Z,45.80
2018-11-22T02:45:42.555Z,45.30
2018-11-22T02:46:42.523Z,46.90
2018-11-22T02:47:42.472Z,46.10
2018-11-22T02:48:42.436Z,45.70
2018-11-22T02:49:42.403Z,45.10
2018-11-22T02:50:42.354Z,45.20
2018-11-22T02:51:42.319Z,46.20
2018-11-22T02:52:42.279Z,44.60
2018-11-22T02:53:42.237Z,46.50
2018-11-22T02:54:42.214Z,45.90
2018-11-22T02:55:42.159Z,45.70
2018-11-22T02:56:42.119Z,45.70
2018-11-22T02:57:42.076Z,45.10
2018-11-22T02:58:42.035Z,45.10
2018-11-22T02:59:41.994Z,47.30
2018-11-22T03:00:41.969Z,44.70
2018-11-22T03:01:41.917Z,44.50
2018-11-22T03:02:41.886Z,45.70
2018-11-22T03:03:41.840Z,46.70
2018-11-22T03:04:41.798Z,47.90
2018-11-22T03:05:48.835Z,44.90
2018-11-22T03:06:49.610Z,43.80
2018-11-22T03:07:41.679Z,46.80
2018-11-22T03:08:41.637Z,44.50
2018-11-22T03:09:41.592Z,47.40
2018-11-22T03:10:41.565Z,44.60
2018-11-22T03:11:41.514Z,43.80
2018-11-22T03:12:41.477Z,45.10
2018-11-22T03:13:41.439Z,46.60
2018-11-22T03:14:41.398Z,43.70
2018-11-22T03:15:41.382Z,47.50
2018-11-22T03:16:41.319Z,45.90
2018-11-22T03:17:41.275Z,45.90
2018-11-22T03:18:41.236Z,46.80
2018-11-22T03:19:41.195Z,43.80
2018-11-22T03:20:41.159Z,44.90
2018-11-22T03:21:41.125Z,44.10
2018-11-22T03:22:41.076Z,43.90
2018-11-22T03:23:41.038Z,45.30
2018-11-22T03:24:40.997Z,45.60
2018-11-22T03:25:40.954Z,42.80
2018-11-22T03:26:40.929Z,42.40
2018-11-22T03:27:40.877Z,45.70
2018-11-22T03:28:40.839Z,46.60
2018-11-22T03:29:40.797Z,45.00
2018-11-22T03:30:40.760Z,44.40
2018-11-22T03:31:40.738Z,46.20
2018-11-22T03:32:40.686Z,46.20
2018-11-22T03:33:40.642Z,47.10
2018-11-22T03:34:40.596Z,45.60
2018-11-22T03:35:40.560Z,42.50
2018-11-22T03:36:40.538Z,44.30
2018-11-22T03:37:40.476Z,44.20
2018-11-22T03:38:40.438Z,42.00
2018-11-22T03:39:40.393Z,45.70
2018-11-22T03:40:40.360Z,43.90
2018-11-22T03:41:40.343Z,45.20
2018-11-22T03:42:40.278Z,45.20
2018-11-22T03:43:40.239Z,44.10
2018-11-22T03:44:40.204Z,43.20
2018-11-22T03:45:40.161Z,45.20
2018-11-22T03:46:40.120Z,43.60
2018-11-22T03:47:40.092Z,43.40
2018-11-22T03:48:40.044Z,45.10
2018-11-22T03:49:39.999Z,45.30
2018-11-22T03:50:39.962Z,44.20
2018-11-22T03:51:39.919Z,43.50
2018-11-22T03:52:39.891Z,43.80
2018-11-22T03:53:39.841Z,44.90
2018-11-22T03:54:39.802Z,44.70
2018-11-22T03:55:39.760Z,44.70
2018-11-22T03:56:39.721Z,44.60
2018-11-22T03:57:39.708Z,44.60
2018-11-22T03:58:39.645Z,44.10
2018-11-22T03:59:39.606Z,43.40
2018-11-22T04:00:39.563Z,44.90
2018-11-22T04:01:39.524Z,45.10
2018-11-22T04:02:39.485Z,44.90
2018-11-22T04:03:39.454Z,43.70
2018-11-22T04:04:39.402Z,42.50
2018-11-22T04:05:39.362Z,42.60
2018-11-22T04:06:39.323Z,43.30
2018-11-22T04:07:39.285Z,43.10
2018-11-22T04:08:39.253Z,43.80
2018-11-22T04:09:39.201Z,45.00
2018-11-22T04:10:39.166Z,44.00
2018-11-22T04:11:39.128Z,44.60
2018-11-22T04:12:39.085Z,45.10
2018-11-22T04:13:39.054Z,44.80
2018-11-22T04:14:39.006Z,44.50
2018-11-22T04:15:38.967Z,44.00
2018-11-22T04:16:38.925Z,42.80
2018-11-22T04:17:38.886Z,45.20
2018-11-22T04:18:38.854Z,43.40
2018-11-22T04:19:38.813Z,44.60
2018-11-22T04:20:38.769Z,44.50
2018-11-22T04:21:38.736Z,44.20
2018-11-22T04:22:38.689Z,44.80
2018-11-22T04:23:38.659Z,44.50
2018-11-22T04:24:38.612Z,44.70
2018-11-22T04:25:38.566Z,43.40
2018-11-22T04:26:38.530Z,43.10
2018-11-22T04:27:38.494Z,44.20
2018-11-22T04:28:38.469Z,42.80
2018-11-22T04:29:38.409Z,43.10
2018-11-22T04:30:38.367Z,45.90
2018-11-22T04:31:38.330Z,44.00
2018-11-22T04:32:38.290Z,45.00
2018-11-22T04:33:38.257Z,44.90
2018-11-22T04:34:38.210Z,44.60
2018-11-22T04:35:38.169Z,42.70
2018-11-22T04:36:38.134Z,44.50
2018-11-22T04:37:38.091Z,43.50
2018-11-22T04:38:38.061Z,44.60
2018-11-22T04:39:38.010Z,42.00
2018-11-22T04:40:47.662Z,43.50
2018-11-22T04:41:37.931Z,43.20
2018-11-22T04:42:37.890Z,43.50
2018-11-22T04:43:37.878Z,43.20
2018-11-22T04:44:37.819Z,44.40
2018-11-22T04:45:37.775Z,42.50
2018-11-22T04:46:37.735Z,42.70
2018-11-22T04:47:37.693Z,42.70
2018-11-22T04:48:37.650Z,43.70
2018-11-22T04:49:37.627Z,42.20
2018-11-22T04:50:37.574Z,42.20
2018-11-22T04:51:37.532Z,42.20
2018-11-22T04:52:37.491Z,43.40
2018-11-22T04:53:37.451Z,44.70
2018-11-22T04:54:37.426Z,42.60
2018-11-22T04:55:37.374Z,43.10
2018-11-22T04:56:37.337Z,43.50
2018-11-22T04:57:37.291Z,43.30
2018-11-22T04:58:37.253Z,41.90
2018-11-22T04:59:37.226Z,42.90
2018-11-22T05:00:37.173Z,43.70
2018-11-22T05:01:37.135Z,42.70
2018-11-22T05:02:37.096Z,44.20
2018-11-22T05:03:37.061Z,43.20
2018-11-22T05:04:38.168Z,44.10
2018-11-22T05:05:36.976Z,42.80
2018-11-22T05:06:36.933Z,43.10
2018-11-22T05:07:36.908Z,43.00
2018-11-22T05:08:36.858Z,43.40
2018-11-22T05:09:36.816Z,41.80
2018-11-22T05:10:36.783Z,43.00
2018-11-22T05:11:36.734Z,43.50
2018-11-22T05:12:36.696Z,42.60
2018-11-22T05:13:36.657Z,43.30
2018-11-22T05:14:36.618Z,44.20
2018-11-22T05:15:36.598Z,42.00
2018-11-22T05:16:36.536Z,43.60
2018-11-22T05:17:36.503Z,41.80
2018-11-22T05:18:36.465Z,42.20
2018-11-22T05:19:36.415Z,42.80
2018-11-22T05:20:36.396Z,42.70
2018-11-22T05:21:36.340Z,42.90
2018-11-22T05:22:36.304Z,43.00
2018-11-22T05:23:36.257Z,40.90
2018-11-22T05:24:36.217Z,42.70
2018-11-22T05:25:36.186Z,41.90
2018-11-22T05:26:36.137Z,40.40
2018-11-22T05:27:36.096Z,42.90
2018-11-22T05:28:36.058Z,42.20
2018-11-22T05:29:36.019Z,44.40
2018-11-22T05:30:36.002Z,42.90
2018-11-22T05:31:35.945Z,42.60
2018-11-22T05:32:35.901Z,42.70
2018-11-22T05:33:35.867Z,42.80
2018-11-22T05:34:35.833Z,41.40
2018-11-22T05:35:35.779Z,41.60
2018-11-22T05:36:35.756Z,43.40
2018-11-22T05:37:35.699Z,44.00
2018-11-22T05:38:35.659Z,40.90
2018-11-22T05:39:35.620Z,41.90
2018-11-22T05:40:35.580Z,42.80
2018-11-22T05:41:35.551Z,42.20
2018-11-22T05:42:35.501Z,42.10
2018-11-22T05:43:35.466Z,42.10
2018-11-22T05:44:35.634Z,43.10
2018-11-22T05:45:35.380Z,41.40
2018-11-22T05:46:35.352Z,42.90
2018-11-22T05:47:35.301Z,41.40
2018-11-22T05:48:35.261Z,41.30
2018-11-22T05:49:35.219Z,43.30
2018-11-22T05:50:35.182Z,43.40
2018-11-22T05:51:35.154Z,42.10
2018-11-22T05:52:35.107Z,42.80
2018-11-22T05:53:35.062Z,42.40
2018-11-22T05:54:35.033Z,41.90
2018-11-22T05:55:34.984Z,43.20
2018-11-22T05:56:34.961Z,43.00
2018-11-22T05:57:34.905Z,41.70
2018-11-22T05:58:34.866Z,43.20
2018-11-22T05:59:34.823Z,42.90
2018-11-22T06:00:34.791Z,43.40
2018-11-22T06:01:34.743Z,43.10
2018-11-22T06:02:34.715Z,44.60
2018-11-22T06:03:34.665Z,42.00
2018-11-22T06:04:34.623Z,42.80
2018-11-22T06:05:34.583Z,41.70
2018-11-22T06:06:34.549Z,42.20
2018-11-22T06:07:34.516Z,42.40
2018-11-22T06:08:45.230Z,42.40
2018-11-22T06:09:34.423Z,42.80
2018-11-22T06:10:34.389Z,41.20
2018-11-22T06:11:34.348Z,41.50
2018-11-22T06:12:34.318Z,42.30
2018-11-22T06:13:34.265Z,42.30
2018-11-22T06:16:24.510Z,40.90
2018-11-22T06:17:24.484Z,43.00
2018-11-22T06:18:24.420Z,43.40
2018-11-22T06:19:24.382Z,40.50
2018-11-22T06:20:24.349Z,41.30
2018-11-22T06:21:24.310Z,41.90
2018-11-22T06:22:24.279Z,42.60
2018-11-22T06:23:24.222Z,39.00
2018-11-22T06:24:24.188Z,41.10
2018-11-22T06:25:24.145Z,41.00
2018-11-22T06:26:24.100Z,42.40
2018-11-22T06:27:24.061Z,41.60
2018-11-22T06:28:24.031Z,40.80
2018-11-22T06:29:23.982Z,40.60
2018-11-22T06:30:23.948Z,41.70
2018-11-22T06:31:23.899Z,40.80
2018-11-22T06:32:23.867Z,40.70
2018-11-22T06:33:23.830Z,42.40
2018-11-22T06:34:23.778Z,41.40
2018-11-22T06:35:23.741Z,42.80
2018-11-22T06:36:23.711Z,42.70
2018-11-22T06:37:23.663Z,40.60
2018-11-22T06:38:23.632Z,40.30
2018-11-22T06:39:23.589Z,40.70
2018-11-22T06:40:23.543Z,43.00
2018-11-22T06:41:23.502Z,40.40
2018-11-22T06:42:23.462Z,40.70
2018-11-22T06:43:23.431Z,42.40
2018-11-22T06:44:23.381Z,42.30
2018-11-22T06:45:23.878Z,41.10
2018-11-22T06:46:23.304Z,39.00
2018-11-22T06:47:23.266Z,41.30
2018-11-22T06:48:23.234Z,42.50
2018-11-22T06:49:23.183Z,40.10
2018-11-22T06:50:23.138Z,41.60
2018-11-22T06:51:23.105Z,39.60
2018-11-22T06:52:23.064Z,40.60
2018-11-22T06:53:23.047Z,41.10
2018-11-22T06:54:22.984Z,40.20
2018-11-22T06:55:22.943Z,40.70
2018-11-22T06:56:22.911Z,42.80
2018-11-22T06:57:22.867Z,41.70
2018-11-22T06:58:22.827Z,41.50
2018-11-22T06:59:22.794Z,41.60
2018-11-22T07:00:22.749Z,42.50
2018-11-22T07:01:22.707Z,41.90
2018-11-22T07:02:22.672Z,42.80
2018-11-22T07:03:22.627Z,41.30
2018-11-22T07:04:22.595Z,42.60
2018-11-22T07:05:22.546Z,42.90
2018-11-22T07:06:22.502Z,44.50
2018-11-22T07:07:22.504Z,42.80
2018-11-22T07:08:22.425Z,42.90
2018-11-22T07:09:22.441Z,42.70
2018-11-22T07:10:22.347Z,42.60
2018-11-22T07:11:22.331Z,42.20
2018-11-22T07:12:22.281Z,43.50
2018-11-22T07:13:22.274Z,41.00
2018-11-22T07:14:22.213Z,41.60
2018-11-22T07:15:22.160Z,41.70
2018-11-22T07:16:22.112Z,41.90
2018-11-22T07:17:22.071Z,41.70
2018-11-22T07:18:22.040Z,40.10
2018-11-22T07:19:22.007Z,42.20
2018-11-22T07:20:21.963Z,43.00
2018-11-22T07:21:21.913Z,41.70
2018-11-22T07:22:21.876Z,40.60
2018-11-22T07:23:21.842Z,42.00
2018-11-22T07:24:21.817Z,41.40
2018-11-22T07:25:21.758Z,42.70
2018-11-22T07:26:21.716Z,42.50
2018-11-22T07:27:21.686Z,42.70
2018-11-22T07:28:21.659Z,40.00
2018-11-22T07:29:21.618Z,41.00
2018-11-22T07:30:21.560Z,42.10
2018-11-22T07:31:21.561Z,41.40
2018-11-22T07:32:21.481Z,42.70
2018-11-22T07:33:21.445Z,41.70
2018-11-22T07:34:21.415Z,40.80
2018-11-22T07:35:21.382Z,42.40
2018-11-22T07:36:21.327Z,40.50
2018-11-22T07:37:21.293Z,40.40
2018-11-22T07:38:21.250Z,40.30
2018-11-22T07:39:21.223Z,40.60
2018-11-22T07:40:21.163Z,39.70
2018-11-22T07:41:21.138Z,40.00
2018-11-22T07:42:21.112Z,40.90
2018-11-22T07:43:21.050Z,39.40
2018-11-22T07:44:23.708Z,40.00
2018-11-22T07:45:20.957Z,40.80
2018-11-22T07:46:20.918Z,40.90
2018-11-22T07:47:20.877Z,41.60
2018-11-22T07:48:20.837Z,41.50
2018-11-22T07:49:20.812Z,40.80
2018-11-22T07:50:20.764Z,40.80
2018-11-22T07:51:20.719Z,40.50
2018-11-22T07:52:20.700Z,41.00
2018-11-22T07:53:21.242Z,42.00
2018-11-22T07:54:20.616Z,39.90
2018-11-22T07:55:20.569Z,39.90
2018-11-22T07:56:20.528Z,42.60
2018-11-22T07:57:20.492Z,39.70
2018-11-22T07:58:20.448Z,40.50
2018-11-22T07:59:20.416Z,41.00
2018-11-22T08:00:21.247Z,40.70
2018-11-22T08:01:20.338Z,40.30
2018-11-22T08:02:20.284Z,38.60
2018-11-22T08:03:20.265Z,40.90
2018-11-22T08:04:20.217Z,41.70
2018-11-22T08:05:20.175Z,41.50
2018-11-22T08:06:20.127Z,39.90
2018-11-22T08:07:20.092Z,40.40
2018-11-22T08:08:20.047Z,40.50
2018-11-22T08:09:20.023Z,39.40
2018-11-22T08:10:19.971Z,39.90
2018-11-22T08:11:19.928Z,40.70
2018-11-22T08:12:25.775Z,39.50
2018-11-22T08:13:19.854Z,39.70
2018-11-22T08:14:19.821Z,39.40
2018-11-22T08:15:19.773Z,39.60
2018-11-22T08:16:19.731Z,40.70
2018-11-22T08:17:19.696Z,40.20
2018-11-22T08:18:19.654Z,39.60
2018-11-22T08:19:19.906Z,39.70
2018-11-22T08:20:19.574Z,39.20
2018-11-22T08:21:19.565Z,37.50
2018-11-22T08:22:19.505Z,39.20
2018-11-22T08:23:19.457Z,41.00
2018-11-22T08:24:19.428Z,39.00
2018-11-22T08:25:19.379Z,38.30
2018-11-22T08:26:19.341Z,38.50
2018-11-22T08:27:19.295Z,40.10
2018-11-22T08:28:19.263Z,39.20
2018-11-22T08:29:19.229Z,39.10
2018-11-22T08:30:19.178Z,37.70
2018-11-22T08:31:19.142Z,40.00
2018-11-22T08:32:19.098Z,38.40
2018-11-22T08:33:19.062Z,38.50
2018-11-22T08:34:19.045Z,39.80
2018-11-22T08:35:18.990Z,37.70
2018-11-22T08:36:18.950Z,37.20
2018-11-22T08:37:18.920Z,38.10
2018-11-22T08:38:18.875Z,38.40
2018-11-22T08:39:18.837Z,38.20
2018-11-22T08:40:19.754Z,38.90
2018-11-22T08:41:18.750Z,38.40
2018-11-22T08:42:18.712Z,38.90
2018-11-22T08:43:18.673Z,38.00
2018-11-22T08:44:18.645Z,37.10
2018-11-22T08:45:18.621Z,37.30
2018-11-22T08:46:18.552Z,37.20
2018-11-22T08:47:18.507Z,38.50
2018-11-22T08:48:18.480Z,37.20
2018-11-22T08:49:18.438Z,37.20
2018-11-22T08:50:18.433Z,37.40
2018-11-22T08:51:19.268Z,36.80
2018-11-22T08:52:18.320Z,37.00
2018-11-22T08:53:18.283Z,37.60
2018-11-22T08:54:18.236Z,36.60
2018-11-22T08:55:18.216Z,36.70
2018-11-22T08:56:18.174Z,37.00
2018-11-22T08:57:18.128Z,37.10
2018-11-22T08:58:18.080Z,36.50
2018-11-22T08:59:18.046Z,37.00
2018-11-22T09:00:18.013Z,35.70
2018-11-22T09:01:17.963Z,36.10
2018-11-22T09:02:17.926Z,35.80
2018-11-22T09:03:17.885Z,35.90
2018-11-22T09:04:17.848Z,35.50
2018-11-22T09:05:17.822Z,36.70
2018-11-22T09:06:17.765Z,36.30
2018-11-22T09:07:17.727Z,38.00
2018-11-22T09:08:17.688Z,36.60
2018-11-22T09:09:17.653Z,36.50
2018-11-22T09:10:17.621Z,37.00
2018-11-22T09:11:17.568Z,35.90
2018-11-22T09:12:17.532Z,35.30
2018-11-22T09:13:17.495Z,36.60
2018-11-22T09:14:17.455Z,36.80
2018-11-22T09:15:17.428Z,34.20
2018-11-22T09:16:17.378Z,35.50
2018-11-22T09:17:17.336Z,34.10
2018-11-22T09:18:17.306Z,34.30
2018-11-22T09:19:17.257Z,34.60
2018-11-22T09:20:17.239Z,35.90
2018-11-22T09:21:17.184Z,35.70
2018-11-22T09:22:17.144Z,36.20
2018-11-22T09:23:17.105Z,36.50
2018-11-22T09:24:17.491Z,33.70
2018-11-22T09:25:17.044Z,34.50
2018-11-22T09:26:16.986Z,34.70
2018-11-22T09:27:16.950Z,34.70
2018-11-22T09:28:16.911Z,33.60
2018-11-22T09:29:16.879Z,33.00
2018-11-22T09:30:16.839Z,33.20
2018-11-22T09:31:16.788Z,33.50
2018-11-22T09:32:16.755Z,34.00
2018-11-22T09:33:16.712Z,34.00
2018-11-22T09:34:16.678Z,32.90
2018-11-22T09:35:16.723Z,34.20
2018-11-22T09:36:16.591Z,34.00
2018-11-22T09:37:16.561Z,32.40
2018-11-22T09:38:16.516Z,33.90
2018-11-22T09:39:16.477Z,33.10
2018-11-22T09:40:16.446Z,32.80
2018-11-22T09:41:16.397Z,31.30
2018-11-22T09:42:16.405Z,33.20
2018-11-22T09:43:16.325Z,33.70
2018-11-22T09:44:16.286Z,31.00
2018-11-22T09:45:16.269Z,34.90
2018-11-22T09:46:16.231Z,33.50
2018-11-22T09:47:16.191Z,33.90
2018-11-22T09:48:16.123Z,33.00
2018-11-22T09:49:16.093Z,34.20
2018-11-22T09:50:16.063Z,32.60
2018-11-22T09:51:16.010Z,33.90
2018-11-22T09:52:15.970Z,34.30
2018-11-22T09:53:15.933Z,32.80
2018-11-22T09:54:15.891Z,34.10
2018-11-22T09:55:15.873Z,31.90
2018-11-22T09:56:15.817Z,31.00
2018-11-22T09:57:16.038Z,33.60
2018-11-22T09:58:15.738Z,32.70
2018-11-22T09:59:15.725Z,32.10
2018-11-22T10:00:15.670Z,31.00
2018-11-22T10:01:15.619Z,31.70
2018-11-22T10:02:15.580Z,30.10
2018-11-22T10:03:15.604Z,31.20
2018-11-22T10:04:15.502Z,30.40
2018-11-22T10:05:15.809Z,29.70
2018-11-22T10:06:15.433Z,31.40
2018-11-22T10:07:16.286Z,31.50
2018-11-22T10:08:15.344Z,32.20
2018-11-22T10:09:15.394Z,31.80
2018-11-22T10:10:15.277Z,30.80
2018-11-22T10:11:15.230Z,32.10
2018-11-22T10:12:15.198Z,32.30
2018-11-22T10:13:15.273Z,32.00
2018-11-22T10:14:15.112Z,32.10
2018-11-22T10:15:15.082Z,31.10
2018-11-22T10:16:15.040Z,29.80
2018-11-22T10:17:14.996Z,30.60
2018-11-22T10:18:14.958Z,29.00
2018-11-22T10:19:14.918Z,30.70
2018-11-22T10:20:14.884Z,29.80
2018-11-22T10:21:14.845Z,30.30
2018-11-22T10:22:14.802Z,30.80
2018-11-22T10:23:14.778Z,29.40
2018-11-22T10:24:14.780Z,31.00
2018-11-22T10:25:14.693Z,32.20
2018-11-22T10:26:14.673Z,31.50
2018-11-22T10:27:14.617Z,27.90
2018-11-22T10:28:14.571Z,30.30
2018-11-22T10:29:14.577Z,29.10
2018-11-22T10:30:14.584Z,30.10
2018-11-22T10:31:14.450Z,29.30
2018-11-22T10:32:14.426Z,27.90
2018-11-22T10:33:14.378Z,29.70
2018-11-22T10:34:14.337Z,30.20
2018-11-22T10:35:14.323Z,28.40
2018-11-22T10:36:14.268Z,27.90
2018-11-22T10:37:14.221Z,28.60
2018-11-22T10:38:14.210Z,26.90
2018-11-22T10:39:14.194Z,27.90
2018-11-22T10:40:14.107Z,28.00
2018-11-22T10:41:14.077Z,29.00
2018-11-22T10:42:14.030Z,27.10
2018-11-22T10:43:13.994Z,25.90
2018-11-22T10:44:13.953Z,27.20
2018-11-22T10:45:13.915Z,27.00
2018-11-22T10:46:13.894Z,28.50
2018-11-22T10:47:13.838Z,26.30
2018-11-22T10:48:13.821Z,26.60
2018-11-22T10:49:13.780Z,26.40
2018-11-22T10:50:13.739Z,26.40
2018-11-22T10:51:13.810Z,26.10
2018-11-22T10:52:13.652Z,26.30
2018-11-22T10:53:13.612Z,25.70
2018-11-22T10:54:13.577Z,25.80
2018-11-22T10:55:13.533Z,24.90
2018-11-22T10:56:13.516Z,24.80
2018-11-22T10:57:13.461Z,24.20
2018-11-22T10:58:13.421Z,25.20
2018-11-22T10:59:13.428Z,25.00
2018-11-22T11:00:13.334Z,24.40
2018-11-22T11:01:13.308Z,24.30
2018-11-22T11:02:13.268Z,24.20
2018-11-22T11:03:13.226Z,24.80
2018-11-22T11:04:13.188Z,23.60
2018-11-22T11:05:13.148Z,23.20
2018-11-22T11:06:13.121Z,25.60
2018-11-22T11:07:13.071Z,24.90
2018-11-22T11:08:13.034Z,23.70
2018-11-22T11:09:13.000Z,23.20
2018-11-22T11:10:12.976Z,23.50
2018-11-22T11:11:12.924Z,23.80
2018-11-22T11:12:12.892Z,24.10
2018-11-22T11:13:12.836Z,23.30
2018-11-22T11:14:12.796Z,24.30
2018-11-22T11:15:12.761Z,24.00
2018-11-22T11:16:12.746Z,23.30
2018-11-22T11:17:12.688Z,22.70
2018-11-22T11:18:12.649Z,23.70
2018-11-22T11:19:12.624Z,23.10
2018-11-22T11:20:12.576Z,23.20
2018-11-22T11:21:12.558Z,21.90
2018-11-22T11:22:12.492Z,23.20
2018-11-22T11:23:12.468Z,23.30
2018-11-22T11:24:12.418Z,23.80
2018-11-22T11:25:12.380Z,21.70
2018-11-22T11:26:12.347Z,21.80
2018-11-22T11:27:12.299Z,23.40
2018-11-22T11:28:12.261Z,22.40
2018-11-22T11:29:12.814Z,23.20
2018-11-22T11:30:12.193Z,24.30
2018-11-22T11:31:12.155Z,22.10
2018-11-22T11:32:12.107Z,22.80
2018-11-22T11:33:12.075Z,22.40
2018-11-22T11:34:12.033Z,22.10
2018-11-22T11:35:11.998Z,21.90
2018-11-22T11:36:17.776Z,22.60
2018-11-22T11:37:11.919Z,21.90
2018-11-22T11:38:11.887Z,21.90
2018-11-22T11:39:11.841Z,22.70
2018-11-22T11:40:11.801Z,22.30
2018-11-22T11:41:11.774Z,22.90
2018-11-22T11:42:11.725Z,21.50
2018-11-22T11:43:11.719Z,21.20
2018-11-22T11:44:11.644Z,20.90
2018-11-22T11:45:11.625Z,22.30
2018-11-22T11:46:11.592Z,21.30
2018-11-22T11:47:11.542Z,22.80
2018-11-22T11:48:11.498Z,22.50
2018-11-22T11:49:11.457Z,20.40
2018-11-22T11:50:11.429Z,22.10
2018-11-22T11:51:11.389Z,21.10
2018-11-22T11:52:11.353Z,21.30
2018-11-22T11:53:11.303Z,21.30
2018-11-22T11:54:11.267Z,22.00
2018-11-22T11:55:11.227Z,20.70
2018-11-22T11:56:11.195Z,21.10
2018-11-22T11:57:11.167Z,21.10
2018-11-22T11:58:11.116Z,21.80
2018-11-22T11:59:11.083Z,21.00
2018-11-22T12:00:11.034Z,20.90
2018-11-22T12:01:10.995Z,21.40
2018-11-22T12:02:15.217Z,20.90
2018-11-22T12:03:11.024Z,20.80
2018-11-22T12:04:10.900Z,21.20
2018-11-22T12:05:10.879Z,20.60
2018-11-22T12:06:10.820Z,20.70
2018-11-22T12:07:10.787Z,21.00
2018-11-22T12:08:10.741Z,20.90
2018-11-22T12:09:10.700Z,22.80
2018-11-22T12:10:10.691Z,21.50
2018-11-22T12:11:10.618Z,21.90
2018-11-22T12:12:10.594Z,20.60
2018-11-22T12:13:10.543Z,21.30
2018-11-22T12:14:10.505Z,21.40
2018-11-22T12:15:10.470Z,21.60
2018-11-22T12:16:10.457Z,22.00
2018-11-22T12:17:10.402Z,21.00
2018-11-22T12:18:10.348Z,21.50
2018-11-22T12:19:10.308Z,21.30
2018-11-22T12:20:10.290Z,20.70
2018-11-22T12:21:10.239Z,21.20
2018-11-22T12:22:10.213Z,20.80
2018-11-22T12:23:10.173Z,21.50
2018-11-22T12:24:10.121Z,20.90
2018-11-22T12:25:10.082Z,20.20
2018-11-22T12:26:10.038Z,19.80
2018-11-22T12:27:10.018Z,21.20
2018-11-22T12:28:09.966Z,20.70
2018-11-22T12:29:09.927Z,21.50
2018-11-22T12:30:09.903Z,20.80
2018-11-22T12:31:09.851Z,19.90
2018-11-22T12:32:16.883Z,20.60
2018-11-22T12:33:09.776Z,20.50
2018-11-22T12:34:09.737Z,20.40
2018-11-22T12:35:09.694Z,21.00
2018-11-22T12:36:09.656Z,20.50
2018-11-22T12:37:09.627Z,20.30
2018-11-22T12:38:09.579Z,22.00
2018-11-22T12:39:09.550Z,20.80
2018-11-22T12:40:09.502Z,22.10
2018-11-22T12:41:09.466Z,22.30
2018-11-22T12:42:09.436Z,21.30
2018-11-22T12:43:09.403Z,20.30
2018-11-22T12:44:09.393Z,19.70
2018-11-22T12:46:35.107Z,21.20
2018-11-22T12:47:35.075Z,20.70
2018-11-22T12:48:35.030Z,21.70
2018-11-22T12:49:34.994Z,20.40
2018-11-22T12:50:34.952Z,19.90
2018-11-22T12:51:34.911Z,20.40
2018-11-22T12:52:34.885Z,20.80
2018-11-22T12:53:34.836Z,21.20
2018-11-22T12:54:34.796Z,20.60
2018-11-22T12:55:34.762Z,22.10
2018-11-22T12:56:34.725Z,20.50